CCL2 weather

Candle Lake Airpark
Candle Lake, Saskatchewan, Canada

Public forecast

Using degrees Celsius for public forecast. Weather courtesy of forecast.io.

Closest aviation weather report (METAR) to Candle Lake Airpark

Closest report is Prince Albert Glass Field, 35.7 nm (66.2 km) SSW. Retrieved 2020/06/01 04:00 UTC (26 minutes ago):

CYPA 010400Z 13010G17KT 15SM FEW090 SCT140 BKN250 22/11 A2946 RMK ACC1AC2CI3 ACC TR LAST STFD OBS/NXT 011200Z SLP976 DENSITY ALT 3100FT

Closest aviation forecast (TAF) to Candle Lake Airpark

Closest forecast is Prince Albert Glass Field, 35.7 nm (66.2 km) SSW. Retrieved 2020-06-01 01:00 UTC (3 hours ago):

TAF CYPA 010038Z 0101/0104 13015G25KT P6SM FEW100 BKN180 TEMPO 0101/0104 P6SM VCTS OVC070CB RMK NXT FCST WILL BE ISSUED AT 011345Z